sensor_id;sensor_type;location;lat;lon;timestamp;pressure;altitude;pressure_sealevel;temperature;humidity
8039;BME280;4062;49.844;8.120;2023-05-19T00:00:15;100034.06;;;15.55;58.09
8039;BME280;4062;49.844;8.120;2023-05-19T00:02:17;100028.72;;;15.55;58.16
8039;BME280;4062;49.844;8.120;2023-05-19T00:04:22;100026.06;;;15.55;58.03
8039;BME280;4062;49.844;8.120;2023-05-19T00:06:25;100032.34;;;15.54;58.23
8039;BME280;4062;49.844;8.120;2023-05-19T00:08:30;100024.34;;;15.54;58.15
8039;BME280;4062;49.844;8.120;2023-05-19T00:10:31;100032.28;;;15.56;58.18
8039;BME280;4062;49.844;8.120;2023-05-19T00:12:35;100021.69;;;15.54;58.03
8039;BME280;4062;49.844;8.120;2023-05-19T00:14:37;100021.69;;;15.54;58.27
8039;BME280;4062;49.844;8.120;2023-05-19T00:16:39;100021.69;;;15.54;58.16
8039;BME280;4062;49.844;8.120;2023-05-19T00:18:40;100022.53;;;15.55;58.13
8039;BME280;4062;49.844;8.120;2023-05-19T00:20:42;100023.41;;;15.55;58.03
8039;BME280;4062;49.844;8.120;2023-05-19T00:22:43;100022.53;;;15.55;58.20
8039;BME280;4062;49.844;8.120;2023-05-19T00:24:45;100024.34;;;15.54;58.17
8039;BME280;4062;49.844;8.120;2023-05-19T00:26:46;100019.03;;;15.54;58.09
8039;BME280;4062;49.844;8.120;2023-05-19T00:28:48;100012.81;;;15.54;58.17
8039;BME280;4062;49.844;8.120;2023-05-19T00:30:50;100015.47;;;15.54;58.10
8039;BME280;4062;49.844;8.120;2023-05-19T00:32:51;100012.81;;;15.54;58.15
8039;BME280;4062;49.844;8.120;2023-05-19T00:34:53;100009.22;;;15.55;58.23
8039;BME280;4062;49.844;8.120;2023-05-19T00:36:55;100012.81;;;15.54;58.23
8039;BME280;4062;49.844;8.120;2023-05-19T00:38:57;100014.56;;;15.55;58.12
8039;BME280;4062;49.844;8.120;2023-05-19T00:40:59;100013.69;;;15.54;58.13
8039;BME280;4062;49.844;8.120;2023-05-19T00:43:00;100016.38;;;15.54;58.14
8039;BME280;4062;49.844;8.120;2023-05-19T00:45:02;100011.03;;;15.54;58.27
8039;BME280;4062;49.844;8.120;2023-05-19T00:47:03;100011.91;;;15.55;58.20
8039;BME280;4062;49.844;8.120;2023-05-19T00:49:04;100011.91;;;15.55;58.23
8039;BME280;4062;49.844;8.120;2023-05-19T00:51:06;100005.72;;;15.54;58.07
8039;BME280;4062;49.844;8.120;2023-05-19T00:53:07;99996.84;;;15.54;58.25
8039;BME280;4062;49.844;8.120;2023-05-19T00:55:10;99995.06;;;15.54;58.26
8039;BME280;4062;49.844;8.120;2023-05-19T00:57:13;99991.50;;;15.54;58.14
8039;BME280;4062;49.844;8.120;2023-05-19T00:59:15;99994.16;;;15.54;58.14
8039;BME280;4062;49.844;8.120;2023-05-19T01:01:17;99987.06;;;15.54;58.26
8039;BME280;4062;49.844;8.120;2023-05-19T01:03:21;99989.72;;;15.54;58.27
8039;BME280;4062;49.844;8.120;2023-05-19T01:05:23;99985.31;;;15.53;58.13
8039;BME280;4062;49.844;8.120;2023-05-19T01:07:25;99988.00;;;15.53;58.21
8039;BME280;4062;49.844;8.120;2023-05-19T01:09:27;99993.31;;;15.53;58.08
8039;BME280;4062;49.844;8.120;2023-05-19T01:11:29;99988.00;;;15.53;58.20
8039;BME280;4062;49.844;8.120;2023-05-19T01:13:30;99988.84;;;15.54;58.24
8039;BME280;4062;49.844;8.120;2023-05-19T01:15:43;99985.31;;;15.53;58.17
8039;BME280;4062;49.844;8.120;2023-05-19T01:18:10;99988.00;;;15.53;58.22
8039;BME280;4062;49.844;8.120;2023-05-19T01:20:15;99983.59;;;15.52;58.14
8039;BME280;4062;49.844;8.120;2023-05-19T01:30:24;99985.31;;;15.53;58.34
8039;BME280;4062;49.844;8.120;2023-05-19T01:32:07;99993.31;;;15.53;58.21
8039;BME280;4062;49.844;8.120;2023-05-19T01:34:11;99993.31;;;15.53;58.13
8039;BME280;4062;49.844;8.120;2023-05-19T01:36:14;99992.44;;;15.53;58.24
8039;BME280;4062;49.844;8.120;2023-05-19T01:38:17;99982.69;;;15.52;58.16
8039;BME280;4062;49.844;8.120;2023-05-19T01:40:21;99988.03;;;15.52;58.29
8039;BME280;4062;49.844;8.120;2023-05-19T01:42:22;99995.09;;;15.53;58.18
8039;BME280;4062;49.844;8.120;2023-05-19T01:44:25;99991.50;;;15.54;58.22
8039;BME280;4062;49.844;8.120;2023-05-19T01:46:26;99995.09;;;15.53;58.09
8039;BME280;4062;49.844;8.120;2023-05-19T01:48:29;99996.91;;;15.52;58.17
8039;BME280;4062;49.844;8.120;2023-05-19T01:50:32;100000.41;;;15.53;58.28
8039;BME280;4062;49.844;8.120;2023-05-19T01:52:34;100003.06;;;15.53;58.24
8039;BME280;4062;49.844;8.120;2023-05-19T01:54:35;99999.56;;;15.52;58.30
8039;BME280;4062;49.844;8.120;2023-05-19T01:57:15;99994.22;;;15.52;58.09
8039;BME280;4062;49.844;8.120;2023-05-19T01:59:46;100001.31;;;15.53;58.28
8039;BME280;4062;49.844;8.120;2023-05-19T02:01:53;100003.06;;;15.53;58.15
8039;BME280;4062;49.844;8.120;2023-05-19T02:08:43;100011.06;;;15.53;58.35
8039;BME280;4062;49.844;8.120;2023-05-19T02:11:02;100007.47;;;15.54;58.29
8039;BME280;4062;49.844;8.120;2023-05-19T02:13:10;100004.88;;;15.52;58.27
8039;BME280;4062;49.844;8.120;2023-05-19T02:15:20;100005.75;;;15.53;58.35
8039;BME280;4062;49.844;8.120;2023-05-19T02:17:26;100007.56;;;15.52;58.24
8039;BME280;4062;49.844;8.120;2023-05-19T02:19:36;100010.22;;;15.52;58.30
8039;BME280;4062;49.844;8.120;2023-05-19T02:21:38;100004.88;;;15.52;58.24
8039;BME280;4062;49.844;8.120;2023-05-19T02:23:40;100005.75;;;15.53;58.34
8039;BME280;4062;49.844;8.120;2023-05-19T02:25:42;100007.56;;;15.52;58.23
8039;BME280;4062;49.844;8.120;2023-05-19T02:27:43;100003.97;;;15.53;58.29
8039;BME280;4062;49.844;8.120;2023-05-19T02:29:44;99999.56;;;15.52;58.33
8039;BME280;4062;49.844;8.120;2023-05-19T02:31:46;99994.22;;;15.52;58.25
8039;BME280;4062;49.844;8.120;2023-05-19T02:33:47;99993.34;;;15.52;58.29
8039;BME280;4062;49.844;8.120;2023-05-19T02:35:50;100002.22;;;15.52;58.21
8039;BME280;4062;49.844;8.120;2023-05-19T02:37:51;99993.34;;;15.52;58.25
8039;BME280;4062;49.844;8.120;2023-05-19T02:39:52;99996.91;;;15.52;58.21
8039;BME280;4062;49.844;8.120;2023-05-19T02:41:54;99995.09;;;15.53;58.25
8039;BME280;4062;49.844;8.120;2023-05-19T02:43:55;99996.91;;;15.52;58.38
8039;BME280;4062;49.844;8.120;2023-05-19T02:45:57;99984.44;;;15.53;58.24
8039;BME280;4062;49.844;8.120;2023-05-19T02:48:00;99985.34;;;15.52;58.37
8039;BME280;4062;49.844;8.120;2023-05-19T02:50:02;99984.50;;;15.51;58.45
8039;BME280;4062;49.844;8.120;2023-05-19T02:52:05;99982.69;;;15.52;58.33
8039;BME280;4062;49.844;8.120;2023-05-19T02:54:06;99986.25;;;15.52;58.36
8039;BME280;4062;49.844;8.120;2023-05-19T02:56:08;99981.84;;;15.51;58.35
8039;BME280;4062;49.844;8.120;2023-05-19T02:58:09;99982.69;;;15.52;58.24
8039;BME280;4062;49.844;8.120;2023-05-19T03:00:11;99986.25;;;15.52;58.21
8039;BME280;4062;49.844;8.120;2023-05-19T03:02:12;99980.03;;;15.52;58.28
8039;BME280;4062;49.844;8.120;2023-05-19T03:04:14;99986.28;;;15.51;58.34
8039;BME280;4062;49.844;8.120;2023-05-19T03:06:15;99985.34;;;15.52;58.33
8039;BME280;4062;49.844;8.120;2023-05-19T03:08:18;99988.03;;;15.52;58.36
8039;BME280;4062;49.844;8.120;2023-05-19T03:10:19;99980.03;;;15.52;58.32
8039;BME280;4062;49.844;8.120;2023-05-19T03:12:21;99978.28;;;15.51;58.38
8039;BME280;4062;49.844;8.120;2023-05-19T03:14:22;99977.38;;;15.52;58.29
8039;BME280;4062;49.844;8.120;2023-05-19T03:16:25;99973.84;;;15.51;58.35
8039;BME280;4062;49.844;8.120;2023-05-19T03:18:28;99976.50;;;15.51;58.39
8039;BME280;4062;49.844;8.120;2023-05-19T03:20:29;99984.50;;;15.51;58.20
8039;BME280;4062;49.844;8.120;2023-05-19T03:22:31;99989.81;;;15.51;58.43
8039;BME280;4062;49.844;8.120;2023-05-19T03:24:32;99984.50;;;15.51;58.44
8039;BME280;4062;49.844;8.120;2023-05-19T03:26:34;99980.94;;;15.51;58.46
8039;BME280;4062;49.844;8.120;2023-05-19T03:28:35;99984.50;;;15.51;58.26
8039;BME280;4062;49.844;8.120;2023-05-19T03:30:36;99988.94;;;15.51;58.37
8039;BME280;4062;49.844;8.120;2023-05-19T03:32:44;99988.94;;;15.51;58.32
8039;BME280;4062;49.844;8.120;2023-05-19T03:34:46;99992.50;;;15.51;58.28
8039;BME280;4062;49.844;8.120;2023-05-19T03:36:47;99992.50;;;15.51;58.39
8039;BME280;4062;49.844;8.120;2023-05-19T03:38:51;99988.94;;;15.51;58.39
8039;BME280;4062;49.844;8.120;2023-05-19T03:40:52;99992.50;;;15.51;58.44
8039;BME280;4062;49.844;8.120;2023-05-19T03:42:53;99993.41;;;15.50;58.49
8039;BME280;4062;49.844;8.120;2023-05-19T03:44:55;99997.81;;;15.51;58.26
8039;BME280;4062;49.844;8.120;2023-05-19T03:46:57;99990.75;;;15.50;58.49
8039;BME280;4062;49.844;8.120;2023-05-19T03:49:24;99989.81;;;15.51;58.46
8039;BME280;4062;49.844;8.120;2023-05-19T03:51:44;99989.81;;;15.51;58.32
8039;BME280;4062;49.844;8.120;2023-05-19T03:54:06;99984.56;;;15.50;58.29
8039;BME280;4062;49.844;8.120;2023-05-19T03:56:09;99984.50;;;15.51;58.43
8039;BME280;4062;49.844;8.120;2023-05-19T03:58:14;99985.41;;;15.50;58.33
8039;BME280;4062;49.844;8.120;2023-05-19T04:00:17;99991.59;;;15.51;58.37
8039;BME280;4062;49.844;8.120;2023-05-19T04:02:18;99991.59;;;15.51;58.44
8039;BME280;4062;49.844;8.120;2023-05-19T04:04:22;99990.75;;;15.50;58.32
8039;BME280;4062;49.844;8.120;2023-05-19T04:06:23;99993.41;;;15.50;58.26
8039;BME280;4062;49.844;8.120;2023-05-19T04:08:25;99992.50;;;15.51;58.24
8039;BME280;4062;49.844;8.120;2023-05-19T04:10:26;99998.75;;;15.50;58.40
8039;BME280;4062;49.844;8.120;2023-05-19T04:12:29;99998.75;;;15.50;58.38
8039;BME280;4062;49.844;8.120;2023-05-19T04:14:33;99999.59;;;15.51;58.39
8039;BME280;4062;49.844;8.120;2023-05-19T04:16:35;99999.59;;;15.51;58.39
8039;BME280;4062;49.844;8.120;2023-05-19T04:18:37;100004.06;;;15.50;58.37
8039;BME280;4062;49.844;8.120;2023-05-19T04:20:38;99998.75;;;15.50;58.51
8039;BME280;4062;49.844;8.120;2023-05-19T04:22:40;100000.53;;;15.50;58.47
8039;BME280;4062;49.844;8.120;2023-05-19T04:24:41;99996.06;;;15.50;58.34
8039;BME280;4062;49.844;8.120;2023-05-19T04:26:43;100001.41;;;15.50;58.38
8039;BME280;4062;49.844;8.120;2023-05-19T04:28:48;99997.88;;;15.50;58.29
8039;BME280;4062;49.844;8.120;2023-05-19T04:30:49;99998.75;;;15.50;58.59
8039;BME280;4062;49.844;8.120;2023-05-19T04:32:51;99996.94;;;15.51;58.60
8039;BME280;4062;49.844;8.120;2023-05-19T04:34:53;99996.06;;;15.50;58.31
8039;BME280;4062;49.844;8.120;2023-05-19T04:36:59;100000.53;;;15.50;58.34
8039;BME280;4062;49.844;8.120;2023-05-19T04:39:01;100003.22;;;15.50;58.38
8039;BME280;4062;49.844;8.120;2023-05-19T04:41:07;100007.59;;;15.51;58.31
8039;BME280;4062;49.844;8.120;2023-05-19T04:43:12;100009.38;;;15.50;58.50
8039;BME280;4062;49.844;8.120;2023-05-19T04:45:15;100007.59;;;15.51;58.38
8039;BME280;4062;49.844;8.120;2023-05-19T04:47:20;100009.38;;;15.50;58.27
8039;BME280;4062;49.844;8.120;2023-05-19T04:49:23;100008.53;;;15.50;58.36
8039;BME280;4062;49.844;8.120;2023-05-19T04:51:24;100015.63;;;15.49;58.36
8039;BME280;4062;49.844;8.120;2023-05-19T04:53:28;100011.19;;;15.50;58.42
8039;BME280;4062;49.844;8.120;2023-05-19T04:55:32;100017.38;;;15.50;58.50
8039;BME280;4062;49.844;8.120;2023-05-19T04:57:34;100012.91;;;15.51;58.45
8039;BME280;4062;49.844;8.120;2023-05-19T04:59:36;100006.78;;;15.48;58.32
8039;BME280;4062;49.844;8.120;2023-05-19T05:01:37;100013.84;;;15.50;58.42
8039;BME280;4062;49.844;8.120;2023-05-19T05:03:40;100014.72;;;15.50;58.44
8039;BME280;4062;49.844;8.120;2023-05-19T05:05:42;100017.38;;;15.50;58.53
8039;BME280;4062;49.844;8.120;2023-05-19T05:07:43;100014.72;;;15.50;58.44
8039;BME280;4062;49.844;8.120;2023-05-19T05:09:45;100010.31;;;15.49;58.33
8039;BME280;4062;49.844;8.120;2023-05-19T05:11:47;100017.38;;;15.50;58.47
8039;BME280;4062;49.844;8.120;2023-05-19T05:13:48;100015.63;;;15.49;58.52
8039;BME280;4062;49.844;8.120;2023-05-19T05:15:52;100015.63;;;15.49;58.57
8039;BME280;4062;49.844;8.120;2023-05-19T05:17:56;100012.97;;;15.49;58.51
8039;BME280;4062;49.844;8.120;2023-05-19T05:19:58;100019.19;;;15.50;58.45
8039;BME280;4062;49.844;8.120;2023-05-19T05:22:02;100014.72;;;15.50;58.52
8039;BME280;4062;49.844;8.120;2023-05-19T05:24:05;100019.19;;;15.50;58.46
8039;BME280;4062;49.844;8.120;2023-05-19T05:26:12;100013.84;;;15.50;58.36
8039;BME280;4062;49.844;8.120;2023-05-19T05:28:21;100017.38;;;15.50;58.36
8039;BME280;4062;49.844;8.120;2023-05-19T05:30:22;100010.31;;;15.49;58.34
8039;BME280;4062;49.844;8.120;2023-05-19T05:32:24;100014.72;;;15.50;58.51
8039;BME280;4062;49.844;8.120;2023-05-19T05:34:26;100013.84;;;15.50;58.46
8039;BME280;4062;49.844;8.120;2023-05-19T05:36:27;100012.97;;;15.49;58.50
8039;BME280;4062;49.844;8.120;2023-05-19T05:38:29;100016.53;;;15.50;58.56
8039;BME280;4062;49.844;8.120;2023-05-19T05:40:31;100008.53;;;15.50;58.45
8039;BME280;4062;49.844;8.120;2023-05-19T05:42:32;100011.19;;;15.50;58.47
8039;BME280;4062;49.844;8.120;2023-05-19T05:44:33;100011.19;;;15.50;58.39
8039;BME280;4062;49.844;8.120;2023-05-19T05:46:37;100006.78;;;15.48;58.35
8039;BME280;4062;49.844;8.120;2023-05-19T05:48:38;99999.66;;;15.49;58.49
8039;BME280;4062;49.844;8.120;2023-05-19T05:50:43;100003.22;;;15.50;58.53
8039;BME280;4062;49.844;8.120;2023-05-19T05:52:46;100007.66;;;15.49;58.39
8039;BME280;4062;49.844;8.120;2023-05-19T05:54:49;100002.31;;;15.49;58.37
8039;BME280;4062;49.844;8.120;2023-05-19T05:56:53;100000.53;;;15.50;58.43
8039;BME280;4062;49.844;8.120;2023-05-19T05:58:54;100002.31;;;15.49;58.53
8039;BME280;4062;49.844;8.120;2023-05-19T06:00:56;100004.06;;;15.50;58.52
8039;BME280;4062;49.844;8.120;2023-05-19T06:02:59;100005.88;;;15.50;58.57
8039;BME280;4062;49.844;8.120;2023-05-19T06:05:01;100001.41;;;15.50;58.42
8039;BME280;4062;49.844;8.120;2023-05-19T06:07:02;99996.13;;;15.48;58.34
8039;BME280;4062;49.844;8.120;2023-05-19T06:09:08;99993.47;;;15.48;58.53
8039;BME280;4062;49.844;8.120;2023-05-19T06:11:09;99997.88;;;15.50;58.39
8039;BME280;4062;49.844;8.120;2023-05-19T06:13:13;99992.56;;;15.50;58.54
8039;BME280;4062;49.844;8.120;2023-05-19T06:15:18;99997.88;;;15.50;58.51
8039;BME280;4062;49.844;8.120;2023-05-19T06:17:36;99996.06;;;15.50;58.40
8039;BME280;4062;49.844;8.120;2023-05-19T06:19:37;99994.25;;;15.51;58.50
8039;BME280;4062;49.844;8.120;2023-05-19T06:21:38;99997.81;;;15.51;58.40
8039;BME280;4062;49.844;8.120;2023-05-19T06:23:40;100003.16;;;15.51;58.40
8039;BME280;4062;49.844;8.120;2023-05-19T06:25:44;99989.81;;;15.51;58.55
8039;BME280;4062;49.844;8.120;2023-05-19T06:27:46;99996.94;;;15.51;58.37
8039;BME280;4062;49.844;8.120;2023-05-19T06:29:49;99992.50;;;15.51;58.38
8039;BME280;4062;49.844;8.120;2023-05-19T06:31:51;99993.41;;;15.50;58.44
8039;BME280;4062;49.844;8.120;2023-05-19T06:33:53;99994.25;;;15.51;58.54
8039;BME280;4062;49.844;8.120;2023-05-19T06:35:55;99996.00;;;15.52;58.54
8039;BME280;4062;49.844;8.120;2023-05-19T06:37:56;99996.00;;;15.52;58.33
8039;BME280;4062;49.844;8.120;2023-05-19T06:39:58;99999.56;;;15.52;58.38
8039;BME280;4062;49.844;8.120;2023-05-19T06:41:59;99994.22;;;15.52;58.41
8039;BME280;4062;49.844;8.120;2023-05-19T06:44:23;99991.56;;;15.52;58.30
8039;BME280;4062;49.844;8.120;2023-05-19T06:46:25;99994.22;;;15.52;58.42
8039;BME280;4062;49.844;8.120;2023-05-19T06:48:27;99992.44;;;15.53;58.25
8039;BME280;4062;49.844;8.120;2023-05-19T06:50:28;99991.50;;;15.54;58.38
8039;BME280;4062;49.844;8.120;2023-05-19T06:52:34;99995.06;;;15.54;58.39
8039;BME280;4062;49.844;8.120;2023-05-19T06:54:36;99991.50;;;15.54;58.36
8039;BME280;4062;49.844;8.120;2023-05-19T06:56:37;99984.41;;;15.54;58.23
8039;BME280;4062;49.844;8.120;2023-05-19T06:58:38;99992.41;;;15.54;58.33
8039;BME280;4062;49.844;8.120;2023-05-19T07:00:42;99993.25;;;15.55;58.39
8039;BME280;4062;49.844;8.120;2023-05-19T07:02:46;99989.72;;;15.54;58.36
8039;BME280;4062;49.844;8.120;2023-05-19T07:04:48;99993.25;;;15.55;58.26
8039;BME280;4062;49.844;8.120;2023-05-19T07:06:51;99996.78;;;15.55;58.45
8039;BME280;4062;49.844;8.120;2023-05-19T07:08:53;99994.94;;;15.57;58.38
8039;BME280;4062;49.844;8.120;2023-05-19T07:10:55;99988.75;;;15.57;58.50
8039;BME280;4062;49.844;8.120;2023-05-19T07:12:56;99990.50;;;15.58;58.39
8039;BME280;4062;49.844;8.120;2023-05-19T07:15:01;99991.41;;;15.57;58.48
8039;BME280;4062;49.844;8.120;2023-05-19T07:17:06;99987.81;;;15.58;58.39
8039;BME280;4062;49.844;8.120;2023-05-19T07:19:10;99982.50;;;15.58;58.46
8039;BME280;4062;49.844;8.120;2023-05-19T07:21:12;99978.91;;;15.59;58.45
8039;BME280;4062;49.844;8.120;2023-05-19T07:23:13;99985.94;;;15.60;58.31
8039;BME280;4062;49.844;8.120;2023-05-19T07:25:15;99985.94;;;15.60;58.39
8039;BME280;4062;49.844;8.120;2023-05-19T07:27:16;99984.25;;;15.59;58.38
8039;BME280;4062;49.844;8.120;2023-05-19T07:29:20;99985.94;;;15.60;58.48
8039;BME280;4062;49.844;8.120;2023-05-19T07:31:23;99980.63;;;15.60;58.44
8039;BME280;4062;49.844;8.120;2023-05-19T07:33:25;99977.09;;;15.59;58.38
8039;BME280;4062;49.844;8.120;2023-05-19T07:35:27;99974.44;;;15.59;58.36
8039;BME280;4062;49.844;8.120;2023-05-19T07:37:42;99978.91;;;15.59;58.23
8039;BME280;4062;49.844;8.120;2023-05-19T07:39:44;99975.38;;;15.58;58.36
8039;BME280;4062;49.844;8.120;2023-05-19T07:41:45;99973.59;;;15.59;58.39
8039;BME280;4062;49.844;8.120;2023-05-19T07:43:52;99974.44;;;15.59;58.40
8039;BME280;4062;49.844;8.120;2023-05-19T07:45:54;99979.78;;;15.59;58.44
8039;BME280;4062;49.844;8.120;2023-05-19T07:47:59;99970.84;;;15.60;58.41
8039;BME280;4062;49.844;8.120;2023-05-19T07:50:02;99976.09;;;15.63;58.35
8039;BME280;4062;49.844;8.120;2023-05-19T07:52:04;99981.41;;;15.63;58.26
8039;BME280;4062;49.844;8.120;2023-05-19T07:54:05;99976.03;;;15.65;58.27
8039;BME280;4062;49.844;8.120;2023-05-19T07:56:08;99982.16;;;15.67;58.26
8039;BME280;4062;49.844;8.120;2023-05-19T07:58:09;99975.91;;;15.68;58.07
8039;BME280;4062;49.844;8.120;2023-05-19T08:00:11;99971.44;;;15.69;58.26
8039;BME280;4062;49.844;8.120;2023-05-19T08:02:13;99965.13;;;15.71;58.05
8039;BME280;4062;49.844;8.120;2023-05-19T08:04:14;99966.03;;;15.72;58.07
8039;BME280;4062;49.844;8.120;2023-05-19T08:06:16;99969.59;;;15.71;58.03
8039;BME280;4062;49.844;8.120;2023-05-19T08:08:20;99967.81;;;15.71;58.21
8039;BME280;4062;49.844;8.120;2023-05-19T08:10:21;99978.44;;;15.71;58.20
8039;BME280;4062;49.844;8.120;2023-05-19T08:12:23;99966.94;;;15.71;58.13
8039;BME280;4062;49.844;8.120;2023-05-19T08:14:24;99970.47;;;15.71;57.88
8039;BME280;4062;49.844;8.120;2023-05-19T08:16:27;99967.81;;;15.71;58.07
8039;BME280;4062;49.844;8.120;2023-05-19T08:18:28;99982.00;;;15.72;58.11
8039;BME280;4062;49.844;8.120;2023-05-19T08:20:30;99979.34;;;15.72;58.27
8039;BME280;4062;49.844;8.120;2023-05-19T08:22:31;99972.22;;;15.72;58.23
8039;BME280;4062;49.844;8.120;2023-05-19T08:24:32;99970.47;;;15.71;58.18
8039;BME280;4062;49.844;8.120;2023-05-19T08:26:34;99967.81;;;15.71;58.27
8039;BME280;4062;49.844;8.120;2023-05-19T08:28:35;99959.81;;;15.71;58.20
8039;BME280;4062;49.844;8.120;2023-05-19T08:30:37;99969.59;;;15.71;58.28
8039;BME280;4062;49.844;8.120;2023-05-19T08:32:38;99956.28;;;15.71;58.18
8039;BME280;4062;49.844;8.120;2023-05-19T08:34:39;99961.56;;;15.72;58.36
8039;BME280;4062;49.844;8.120;2023-05-19T08:36:41;99957.16;;;15.71;58.20
8039;BME280;4062;49.844;8.120;2023-05-19T08:38:42;99955.41;;;15.70;58.36
8039;BME280;4062;49.844;8.120;2023-05-19T08:40:45;99960.72;;;15.70;58.31
8039;BME280;4062;49.844;8.120;2023-05-19T08:42:48;99950.97;;;15.71;58.33
8039;BME280;4062;49.844;8.120;2023-05-19T08:44:50;99959.00;;;15.69;58.26
8039;BME280;4062;49.844;8.120;2023-05-19T08:46:54;99948.34;;;15.69;58.25
8039;BME280;4062;49.844;8.120;2023-05-19T08:49:01;99946.63;;;15.68;58.40
8039;BME280;4062;49.844;8.120;2023-05-19T08:51:24;99939.47;;;15.69;58.37
8039;BME280;4062;49.844;8.120;2023-05-19T08:53:36;99941.28;;;15.68;58.37
8039;BME280;4062;49.844;8.120;2023-05-19T08:57:41;99943.06;;;15.68;58.29
8039;BME280;4062;49.844;8.120;2023-05-19T08:59:43;99937.69;;;15.69;58.10
8039;BME280;4062;49.844;8.120;2023-05-19T09:01:44;99935.00;;;15.69;58.36
8039;BME280;4062;49.844;8.120;2023-05-19T09:03:47;99927.03;;;15.69;58.24
8039;BME280;4062;49.844;8.120;2023-05-19T09:05:49;99929.69;;;15.69;58.30
8039;BME280;4062;49.844;8.120;2023-05-19T09:07:51;99927.00;;;15.71;58.41
8039;BME280;4062;49.844;8.120;2023-05-19T09:09:52;99924.34;;;15.69;58.37
8039;BME280;4062;49.844;8.120;2023-05-19T09:11:54;99919.91;;;15.70;58.27
8039;BME280;4062;49.844;8.120;2023-05-19T09:13:55;99918.09;;;15.70;58.22
8039;BME280;4062;49.844;8.120;2023-05-19T09:15:57;99921.66;;;15.71;58.36
8039;BME280;4062;49.844;8.120;2023-05-19T09:18:06;99920.72;;;15.72;58.22
8039;BME280;4062;49.844;8.120;2023-05-19T09:20:08;99915.41;;;15.72;58.31
8039;BME280;4062;49.844;8.120;2023-05-19T09:22:15;99919.84;;;15.71;58.18
8039;BME280;4062;49.844;8.120;2023-05-19T09:24:19;99914.47;;;15.73;58.32
8039;BME280;4062;49.844;8.120;2023-05-19T09:26:21;99913.59;;;15.72;58.29
8039;BME280;4062;49.844;8.120;2023-05-19T09:28:27;99921.59;;;15.72;58.30
8039;BME280;4062;49.844;8.120;2023-05-19T09:30:30;99906.50;;;15.73;58.36
8039;BME280;4062;49.844;8.120;2023-05-19T09:32:35;99901.16;;;15.73;58.20
8039;BME280;4062;49.844;8.120;2023-05-19T09:34:40;99894.94;;;15.72;58.27
8039;BME280;4062;49.844;8.120;2023-05-19T09:36:42;99888.78;;;15.72;58.29
8039;BME280;4062;49.844;8.120;2023-05-19T09:38:46;99889.69;;;15.71;58.34
8039;BME280;4062;49.844;8.120;2023-05-19T09:40:59;99889.69;;;15.71;58.44
8039;BME280;4062;49.844;8.120;2023-05-19T09:43:06;99894.09;;;15.72;58.23
8039;BME280;4062;49.844;8.120;2023-05-19T09:45:16;99895.88;;;15.71;58.25
8039;BME280;4062;49.844;8.120;2023-05-19T09:47:20;99889.69;;;15.71;58.14
8039;BME280;4062;49.844;8.120;2023-05-19T09:49:23;99887.88;;;15.71;58.25
8039;BME280;4062;49.844;8.120;2023-05-19T09:51:24;99886.09;;;15.72;58.19
8039;BME280;4062;49.844;8.120;2023-05-19T09:53:26;99881.69;;;15.71;58.28
8039;BME280;4062;49.844;8.120;2023-05-19T09:55:30;99879.88;;;15.71;58.22
8039;BME280;4062;49.844;8.120;2023-05-19T09:57:34;99882.56;;;15.71;58.18
8039;BME280;4062;49.844;8.120;2023-05-19T09:59:37;99888.78;;;15.72;58.31
8039;BME280;4062;49.844;8.120;2023-05-19T10:01:39;99886.09;;;15.72;58.11
8039;BME280;4062;49.844;8.120;2023-05-19T10:03:42;99878.13;;;15.72;58.30
8039;BME280;4062;49.844;8.120;2023-05-19T10:05:46;99871.88;;;15.73;58.14
8039;BME280;4062;49.844;8.120;2023-05-19T10:07:50;99873.63;;;15.72;58.29
8039;BME280;4062;49.844;8.120;2023-05-19T10:09:52;99878.97;;;15.72;58.22
8039;BME280;4062;49.844;8.120;2023-05-19T10:11:55;99870.97;;;15.72;58.21
8039;BME280;4062;49.844;8.120;2023-05-19T10:13:57;99875.44;;;15.72;58.30
8039;BME280;4062;49.844;8.120;2023-05-19T10:15:59;99876.31;;;15.72;58.30
8039;BME280;4062;49.844;8.120;2023-05-19T10:18:02;99870.13;;;15.72;58.15
8039;BME280;4062;49.844;8.120;2023-05-19T10:20:04;99870.97;;;15.72;58.09
8039;BME280;4062;49.844;8.120;2023-05-19T10:22:07;99863.88;;;15.73;58.21
8039;BME280;4062;49.844;8.120;2023-05-19T10:24:08;99864.78;;;15.72;58.11
8039;BME280;4062;49.844;8.120;2023-05-19T10:26:10;99865.66;;;15.72;58.22
8039;BME280;4062;49.844;8.120;2023-05-19T10:28:15;99858.53;;;15.73;58.35
8039;BME280;4062;49.844;8.120;2023-05-19T10:30:21;99853.22;;;15.73;58.13
8039;BME280;4062;49.844;8.120;2023-05-19T10:32:29;99858.53;;;15.73;58.10
8039;BME280;4062;49.844;8.120;2023-05-19T10:37:23;99855.88;;;15.73;58.12
8039;BME280;4062;49.844;8.120;2023-05-19T10:39:32;99851.41;;;15.73;58.12
8039;BME280;4062;49.844;8.120;2023-05-19T10:46:31;99837.22;;;15.73;58.03
8039;BME280;4062;49.844;8.120;2023-05-19T10:48:35;99831.91;;;15.73;58.03
8039;BME280;4062;49.844;8.120;2023-05-19T10:50:36;99828.34;;;15.72;58.12
8039;BME280;4062;49.844;8.120;2023-05-19T10:52:38;99831.00;;;15.72;58.16
8039;BME280;4062;49.844;8.120;2023-05-19T10:54:43;99831.94;;;15.71;58.07
8039;BME280;4062;49.844;8.120;2023-05-19T10:56:47;99833.69;;;15.72;58.07
8039;BME280;4062;49.844;8.120;2023-05-19T10:58:49;99835.50;;;15.72;58.08
8039;BME280;4062;49.844;8.120;2023-05-19T11:00:59;99832.81;;;15.72;58.19
8039;BME280;4062;49.844;8.120;2023-05-19T11:03:17;99829.28;;;15.71;58.09
8039;BME280;4062;49.844;8.120;2023-05-19T11:05:28;99839.94;;;15.71;58.05
8039;BME280;4062;49.844;8.120;2023-05-19T11:07:30;99832.81;;;15.72;58.34
8039;BME280;4062;49.844;8.120;2023-05-19T11:09:31;99832.81;;;15.72;58.26
8039;BME280;4062;49.844;8.120;2023-05-19T11:12:02;99842.59;;;15.71;58.16
8039;BME280;4062;49.844;8.120;2023-05-19T11:14:04;99833.75;;;15.71;58.05
8039;BME280;4062;49.844;8.120;2023-05-19T11:16:08;99825.69;;;15.72;58.27
8039;BME280;4062;49.844;8.120;2023-05-19T11:18:09;99826.63;;;15.71;58.09
8039;BME280;4062;49.844;8.120;2023-05-19T11:20:24;99831.00;;;15.72;58.28
8039;BME280;4062;49.844;8.120;2023-05-19T11:22:26;99827.53;;;15.70;58.17
8039;BME280;4062;49.844;8.120;2023-05-19T11:24:44;99830.16;;;15.72;58.24
8039;BME280;4062;49.844;8.120;2023-05-19T11:26:54;99816.84;;;15.72;58.16
8039;BME280;4062;49.844;8.120;2023-05-19T11:28:55;99826.63;;;15.71;58.23
8039;BME280;4062;49.844;8.120;2023-05-19T11:30:57;99824.03;;;15.70;58.18
8039;BME280;4062;49.844;8.120;2023-05-19T11:33:00;99823.09;;;15.71;58.13